createdAt,value
2022-08-18T00:01:05.397Z,62.48
2022-08-18T00:03:56.000Z,61.04
2022-08-18T00:06:18.926Z,60.78
2022-08-18T00:08:45.432Z,61.40
2022-08-18T00:11:12.091Z,62.18
2022-08-18T00:13:38.607Z,63.01
2022-08-18T00:16:05.205Z,63.88
2022-08-18T00:18:31.711Z,63.49
2022-08-18T00:20:58.183Z,63.02
2022-08-18T00:23:24.670Z,63.28
2022-08-18T00:25:51.223Z,62.83
2022-08-18T00:28:17.759Z,63.76
2022-08-18T00:30:44.282Z,64.62
2022-08-18T00:33:11.945Z,63.81
2022-08-18T00:35:38.619Z,63.78
2022-08-18T00:38:06.597Z,63.49
2022-08-18T00:40:38.120Z,64.44
2022-08-18T00:43:06.101Z,63.79
2022-08-18T00:45:36.160Z,65.01
2022-08-18T00:48:03.510Z,62.94
2022-08-18T00:50:34.881Z,58.75
2022-08-18T00:53:18.469Z,60.64
2022-08-18T00:55:54.511Z,63.21
2022-08-18T00:58:27.167Z,63.46
2022-08-18T01:00:54.859Z,65.25
2022-08-18T01:03:24.991Z,64.14
2022-08-18T01:05:55.066Z,65.80
2022-08-18T01:08:29.223Z,61.89
2022-08-18T01:10:57.737Z,62.81
2022-08-18T01:13:29.503Z,62.74
2022-08-18T01:15:56.546Z,63.87
2022-08-18T01:18:41.791Z,64.12
2022-08-18T01:21:30.212Z,64.64
2022-08-18T01:23:57.420Z,65.15
2022-08-18T01:26:26.107Z,64.77
2022-08-18T01:28:53.035Z,66.28
2022-08-18T01:31:39.610Z,65.47
2022-08-18T01:34:21.524Z,66.17
2022-08-18T01:36:48.394Z,66.91
2022-08-18T01:39:14.881Z,64.40
2022-08-18T01:42:04.555Z,63.29
2022-08-18T01:44:31.141Z,64.96
2022-08-18T01:46:57.699Z,64.31
2022-08-18T01:49:24.327Z,65.36
2022-08-18T01:51:52.628Z,61.43
2022-08-18T01:54:19.115Z,64.23
2022-08-18T01:56:48.388Z,64.12
2022-08-18T01:59:15.472Z,64.27
2022-08-18T02:01:50.380Z,64.52
2022-08-18T02:04:37.058Z,62.81
2022-08-18T02:07:06.150Z,63.37
2022-08-18T02:09:33.628Z,64.13
2022-08-18T02:12:01.021Z,64.89
2022-08-18T02:14:27.714Z,65.45
2022-08-18T02:17:02.290Z,66.63
2022-08-18T02:19:48.165Z,67.91
2022-08-18T02:22:16.783Z,67.26
2022-08-18T02:24:43.901Z,67.00
2022-08-18T02:27:11.495Z,67.03
2022-08-18T02:29:38.071Z,67.35
2022-08-18T02:32:05.215Z,68.31
2022-08-18T02:34:31.772Z,69.02
2022-08-18T02:37:00.073Z,67.62
2022-08-18T02:39:26.890Z,68.03
2022-08-18T02:41:53.527Z,68.05
2022-08-18T02:44:20.342Z,67.63
2022-08-18T02:46:51.592Z,68.51
2022-08-18T02:49:18.203Z,70.53
2022-08-18T02:51:44.930Z,70.80
2022-08-18T02:54:11.523Z,71.41
2022-08-18T02:56:41.175Z,71.61
2022-08-18T02:59:13.173Z,71.67
2022-08-18T03:01:40.832Z,73.57
2022-08-18T03:04:09.206Z,74.32
2022-08-18T03:06:36.589Z,73.67
2022-08-18T03:09:04.320Z,73.46
2022-08-18T03:11:30.887Z,74.45
2022-08-18T03:13:57.706Z,75.05
2022-08-18T03:16:24.606Z,76.69
2022-08-18T03:18:52.173Z,78.53
2022-08-18T03:21:21.671Z,77.12
2022-08-18T03:24:00.694Z,76.33
2022-08-18T03:26:28.441Z,75.79
2022-08-18T03:28:55.508Z,75.35
2022-08-18T03:31:23.161Z,74.93
2022-08-18T03:33:51.876Z,76.28
2022-08-18T03:36:20.251Z,75.47
2022-08-18T03:38:47.479Z,75.24
2022-08-18T03:41:57.014Z,75.42
2022-08-18T03:44:07.267Z,76.49
2022-08-18T03:46:33.862Z,73.71
2022-08-18T03:49:02.056Z,75.36
2022-08-18T03:51:30.122Z,74.94
2022-08-18T03:54:00.533Z,74.68
2022-08-18T03:56:29.418Z,74.98
2022-08-18T03:58:57.606Z,75.04
2022-08-18T04:01:27.180Z,73.71
2022-08-18T04:03:58.530Z,74.91
2022-08-18T04:06:30.432Z,77.22
2022-08-18T04:08:58.500Z,76.88
2022-08-18T04:11:25.257Z,75.33
2022-08-18T04:13:51.862Z,74.89
2022-08-18T04:16:18.350Z,74.80
2022-08-18T04:18:44.863Z,76.21
2022-08-18T04:21:13.537Z,77.33
2022-08-18T04:23:43.990Z,76.72
2022-08-18T04:26:19.027Z,76.91
2022-08-18T04:28:46.427Z,75.24
2022-08-18T04:31:14.164Z,75.03
2022-08-18T04:33:42.033Z,76.03
2022-08-18T04:36:13.587Z,75.43
2022-08-18T04:38:47.305Z,77.33
2022-08-18T04:41:14.542Z,76.47
2022-08-18T04:43:41.282Z,75.52
2022-08-18T04:46:08.313Z,75.28
2022-08-18T04:48:36.491Z,74.26
2022-08-18T04:51:07.791Z,75.02
2022-08-18T04:53:46.893Z,75.59
2022-08-18T04:56:14.913Z,74.71
2022-08-18T04:58:41.835Z,74.29
2022-08-18T05:01:09.998Z,73.32
2022-08-18T05:03:38.418Z,73.30
2022-08-18T05:06:16.830Z,71.46
2022-08-18T05:08:43.645Z,70.31
2022-08-18T05:11:10.254Z,68.36
2022-08-18T05:13:37.007Z,67.94
2022-08-18T05:16:11.774Z,67.75
2022-08-18T05:18:43.460Z,68.36
2022-08-18T05:21:14.090Z,68.15
2022-08-18T05:23:44.587Z,67.34
2022-08-18T05:26:11.682Z,66.51
2022-08-18T05:28:38.254Z,66.19
2022-08-18T05:31:13.939Z,64.18
2022-08-18T05:33:40.891Z,64.06
2022-08-18T05:36:30.395Z,62.85
2022-08-18T05:38:59.967Z,61.66
2022-08-18T05:41:29.006Z,61.00
2022-08-18T05:43:57.152Z,60.66
2022-08-18T05:46:30.789Z,61.09
2022-08-18T05:48:57.280Z,61.25
2022-08-18T05:51:28.447Z,58.78
2022-08-18T05:54:13.555Z,58.33
2022-08-18T05:56:47.676Z,56.56
2022-08-18T05:59:26.366Z,56.55
2022-08-18T06:01:59.658Z,56.44
2022-08-18T06:04:38.874Z,57.01
2022-08-18T06:07:08.684Z,57.05
2022-08-18T06:09:38.502Z,55.66
2022-08-18T06:12:28.726Z,54.33
2022-08-18T06:15:01.357Z,54.11
2022-08-18T06:17:41.372Z,54.18
2022-08-18T06:20:16.796Z,53.26
2022-08-18T06:23:01.966Z,52.80
2022-08-18T06:25:48.294Z,51.47
2022-08-18T06:28:16.170Z,49.74
2022-08-18T06:30:42.773Z,49.04
2022-08-18T06:33:29.758Z,47.73
2022-08-18T06:36:02.703Z,46.39
2022-08-18T06:38:48.099Z,46.43
2022-08-18T06:41:43.207Z,45.90
2022-08-18T06:44:01.247Z,44.47
2022-08-18T06:46:34.224Z,45.21
2022-08-18T06:49:04.432Z,44.33
2022-08-18T06:51:31.272Z,43.29
2022-08-18T06:53:57.795Z,43.08
2022-08-18T06:56:26.243Z,42.29
2022-08-18T06:58:55.270Z,41.42
2022-08-18T07:01:23.667Z,40.83
2022-08-18T07:03:54.820Z,40.13
2022-08-18T07:06:21.452Z,40.86
2022-08-18T07:08:48.839Z,40.59
2022-08-18T07:11:22.900Z,40.18
2022-08-18T07:14:03.619Z,38.37
2022-08-18T07:19:31.023Z,38.89
2022-08-18T07:22:30.094Z,37.97
2022-08-18T07:25:06.029Z,38.38
2022-08-18T07:27:41.456Z,35.33
2022-08-18T07:30:34.156Z,34.08
2022-08-18T07:33:36.270Z,35.18
2022-08-18T07:36:06.533Z,33.12
2022-08-18T07:38:44.023Z,31.75
2022-08-18T07:41:29.798Z,32.11
2022-08-18T07:44:00.711Z,32.10
2022-08-18T07:46:35.430Z,30.49
2022-08-18T07:49:05.403Z,31.14
2022-08-18T07:51:53.077Z,31.26
2022-08-18T07:54:49.433Z,30.57
2022-08-18T07:57:22.899Z,29.90
2022-08-18T07:59:49.423Z,30.59
2022-08-18T08:02:16.000Z,29.02
2022-08-18T08:04:45.571Z,28.52
2022-08-18T08:07:25.539Z,27.18
2022-08-18T08:09:55.228Z,29.61
2022-08-18T08:12:44.292Z,29.42
2022-08-18T08:15:15.672Z,30.71
2022-08-18T08:17:47.956Z,29.75
2022-08-18T08:20:22.196Z,29.65
2022-08-18T08:23:09.323Z,29.48
2022-08-18T08:25:47.971Z,30.01
2022-08-18T08:28:40.776Z,30.72
2022-08-18T08:31:36.638Z,31.13
2022-08-18T08:34:14.970Z,30.97
2022-08-18T08:36:45.065Z,31.51
2022-08-18T08:39:14.464Z,31.27
2022-08-18T08:41:43.734Z,31.15
2022-08-18T08:44:15.319Z,30.27
2022-08-18T08:47:02.471Z,30.31
2022-08-18T08:49:35.698Z,30.55
2022-08-18T08:52:09.594Z,32.37
2022-08-18T08:54:48.320Z,31.72
2022-08-18T08:57:16.275Z,30.67
2022-08-18T08:59:44.426Z,29.67
2022-08-18T09:02:27.016Z,29.97
2022-08-18T09:05:08.925Z,30.26
2022-08-18T09:07:42.122Z,30.10
2022-08-18T09:10:27.227Z,30.34
2022-08-18T09:12:53.868Z,28.74
2022-08-18T09:15:39.725Z,28.65
2022-08-18T09:18:06.243Z,29.03
2022-08-18T09:20:32.949Z,28.60
2022-08-18T09:23:19.788Z,28.40
2022-08-18T09:25:48.432Z,27.41
2022-08-18T09:28:15.103Z,27.79
2022-08-18T09:30:47.729Z,27.75
2022-08-18T09:33:20.776Z,26.02
2022-08-18T09:36:06.011Z,25.41
2022-08-18T09:39:04.741Z,25.52
2022-08-18T09:41:37.913Z,24.62
2022-08-18T09:44:17.922Z,26.02
2022-08-18T09:46:54.042Z,25.04
2022-08-18T09:50:37.217Z,24.03
2022-08-18T09:55:18.110Z,24.55
2022-08-18T09:57:46.660Z,25.35
2022-08-18T10:00:19.864Z,25.59
2022-08-18T10:02:51.255Z,24.11
2022-08-18T10:05:22.391Z,23.25
2022-08-18T10:07:55.964Z,24.46
2022-08-18T10:11:02.863Z,23.35
2022-08-18T10:13:49.889Z,23.62
2022-08-18T10:16:16.484Z,24.43
2022-08-18T10:19:01.925Z,23.29
2022-08-18T10:24:36.283Z,23.15
2022-08-18T10:27:07.295Z,22.68
2022-08-18T10:29:44.914Z,22.54
2022-08-18T10:32:14.451Z,22.56
2022-08-18T10:34:51.477Z,22.79
2022-08-18T10:37:45.271Z,22.14
2022-08-18T10:40:21.310Z,22.82
2022-08-18T10:43:46.228Z,21.46
2022-08-18T10:49:17.612Z,22.27
2022-08-18T10:51:59.463Z,21.96
2022-08-18T10:54:33.525Z,21.54
2022-08-18T10:57:20.270Z,20.72
2022-08-18T10:59:55.044Z,21.98
2022-08-18T11:02:37.317Z,21.08
2022-08-18T11:05:11.120Z,21.21
2022-08-18T11:07:42.900Z,22.11
2022-08-18T11:13:24.440Z,21.95
2022-08-18T11:16:00.435Z,22.56
2022-08-18T11:18:42.920Z,22.56
2022-08-18T11:21:31.413Z,21.85
2022-08-18T11:27:24.839Z,22.03
2022-08-18T11:29:51.992Z,22.14
2022-08-18T11:32:27.642Z,22.02
2022-08-18T11:35:01.599Z,20.26
2022-08-18T11:37:48.583Z,20.78
2022-08-18T11:40:34.532Z,21.22
2022-08-18T11:43:13.405Z,21.16
2022-08-18T11:45:47.944Z,22.52
2022-08-18T11:48:14.490Z,21.93
2022-08-18T11:50:54.666Z,21.43
2022-08-18T11:53:44.077Z,21.50
2022-08-18T11:56:14.320Z,21.99
2022-08-18T11:58:43.475Z,21.34
2022-08-18T12:01:11.198Z,20.53
2022-08-18T12:03:37.838Z,21.41
2022-08-18T12:06:20.274Z,21.48
2022-08-18T12:08:58.109Z,21.71
2022-08-18T12:11:30.313Z,21.30
2022-08-18T12:13:59.741Z,19.77
2022-08-18T12:16:35.035Z,19.89
2022-08-18T12:19:03.320Z,19.20
2022-08-18T12:21:32.322Z,20.41
2022-08-18T12:23:58.887Z,20.52
2022-08-18T12:26:38.260Z,20.38
2022-08-18T12:29:11.120Z,20.40
2022-08-18T12:31:47.507Z,20.35
2022-08-18T12:34:15.358Z,21.60
2022-08-18T12:36:42.364Z,21.97
2022-08-18T12:39:10.255Z,22.78
2022-08-18T12:41:37.603Z,22.28
2022-08-18T12:44:04.481Z,22.28
2022-08-18T12:46:39.894Z,22.24
2022-08-18T12:49:20.453Z,22.96
2022-08-18T12:51:50.387Z,24.86
2022-08-18T12:54:17.860Z,25.56
2022-08-18T12:56:46.495Z,25.95
2022-08-18T12:59:13.003Z,26.56
2022-08-18T13:01:40.245Z,26.39
2022-08-18T13:04:13.045Z,27.01
2022-08-18T13:06:48.537Z,26.99
2022-08-18T13:09:35.102Z,27.65
2022-08-18T13:12:16.137Z,25.74
2022-08-18T13:14:43.732Z,26.41
2022-08-18T13:17:15.284Z,26.14
2022-08-18T13:19:56.587Z,25.47
2022-08-18T13:22:32.090Z,25.32
2022-08-18T13:25:00.273Z,25.14
2022-08-18T13:27:27.028Z,24.82
2022-08-18T13:29:59.499Z,25.85
2022-08-18T13:32:26.246Z,26.14
2022-08-18T13:34:54.715Z,27.14
2022-08-18T13:37:26.529Z,27.77
2022-08-18T13:39:54.505Z,27.13
2022-08-18T13:42:26.171Z,27.00
2022-08-18T13:45:25.309Z,27.42
2022-08-18T13:47:51.176Z,27.26
2022-08-18T13:50:19.617Z,28.06
2022-08-18T13:52:46.324Z,27.58
2022-08-18T13:55:16.732Z,27.73
2022-08-18T13:57:50.876Z,28.01
2022-08-18T14:00:29.866Z,27.93
2022-08-18T14:02:58.872Z,28.45
2022-08-18T14:05:50.927Z,28.86
2022-08-18T14:08:12.507Z,33.99
2022-08-18T14:10:50.739Z,39.08
2022-08-18T14:13:20.848Z,44.71
2022-08-18T14:15:54.862Z,50.18
2022-08-18T14:18:29.021Z,54.72
2022-08-18T14:21:16.610Z,65.64
2022-08-18T14:24:02.126Z,68.66
2022-08-18T14:26:50.182Z,63.86
2022-08-18T14:29:17.734Z,64.45
2022-08-18T14:32:04.806Z,64.16
2022-08-18T14:34:31.365Z,62.17
2022-08-18T14:36:58.523Z,64.02
2022-08-18T14:39:25.701Z,62.94
2022-08-18T14:41:54.907Z,62.84
2022-08-18T14:44:24.272Z,60.38
2022-08-18T14:46:54.394Z,61.82
2022-08-18T14:49:28.526Z,61.38
2022-08-18T14:51:57.327Z,61.03
2022-08-18T14:54:24.211Z,61.38
2022-08-18T14:56:55.425Z,62.36
2022-08-18T14:59:23.243Z,59.57
2022-08-18T15:01:51.442Z,57.99
2022-08-18T15:04:19.031Z,58.11
2022-08-18T15:06:56.018Z,60.33
2022-08-18T15:09:24.411Z,60.46
2022-08-18T15:11:55.823Z,61.90
2022-08-18T15:14:26.599Z,62.02
2022-08-18T15:17:00.108Z,61.15
2022-08-18T15:19:57.729Z,60.33
2022-08-18T15:22:31.511Z,57.41
2022-08-18T15:25:17.867Z,57.69
2022-08-18T15:27:47.833Z,56.08
2022-08-18T15:30:19.848Z,55.05
2022-08-18T15:32:47.476Z,53.12
2022-08-18T15:35:17.074Z,52.50
2022-08-18T15:37:44.844Z,52.03
2022-08-18T15:40:21.696Z,54.30
2022-08-18T15:43:01.461Z,53.67
2022-08-18T15:45:35.489Z,52.25
2022-08-18T15:48:02.218Z,53.25
2022-08-18T15:50:28.763Z,54.97
2022-08-18T15:52:56.081Z,55.45
2022-08-18T15:55:23.331Z,53.04
2022-08-18T15:57:56.899Z,54.47
2022-08-18T16:00:26.753Z,55.02
2022-08-18T16:02:57.156Z,52.40
2022-08-18T16:05:31.320Z,52.08
2022-08-18T16:07:58.958Z,51.84
2022-08-18T16:10:26.166Z,51.65
2022-08-18T16:12:52.689Z,51.94
2022-08-18T16:15:21.375Z,53.27
2022-08-18T16:17:49.437Z,53.58
2022-08-18T16:20:16.067Z,55.51
2022-08-18T16:22:42.806Z,56.14
2022-08-18T16:25:09.528Z,55.09
2022-08-18T16:27:36.511Z,53.30
2022-08-18T16:30:04.650Z,50.85
2022-08-18T16:32:31.999Z,51.41
2022-08-18T16:34:59.052Z,51.08
2022-08-18T16:37:27.040Z,51.84
2022-08-18T16:39:54.109Z,53.59
2022-08-18T16:42:20.791Z,54.22
2022-08-18T16:44:47.343Z,52.80
2022-08-18T16:47:17.443Z,55.33
2022-08-18T16:49:48.724Z,54.29
2022-08-18T16:52:15.995Z,52.83
2022-08-18T16:54:46.077Z,53.32
2022-08-18T16:57:12.660Z,52.99
2022-08-18T16:59:58.046Z,52.27
2022-08-18T17:02:43.868Z,52.43
2022-08-18T17:05:12.299Z,54.33
2022-08-18T17:07:38.867Z,55.98
2022-08-18T17:10:06.122Z,55.59
2022-08-18T17:12:32.741Z,55.88
2022-08-18T17:14:59.239Z,54.75
2022-08-18T17:17:25.842Z,54.35
2022-08-18T17:19:52.400Z,53.86
2022-08-18T17:22:18.965Z,53.10
2022-08-18T17:24:49.458Z,52.09
2022-08-18T17:27:37.247Z,52.23
2022-08-18T17:30:07.574Z,52.28
2022-08-18T17:32:51.351Z,53.15
2022-08-18T17:35:28.890Z,53.42
2022-08-18T17:38:13.927Z,55.08
2022-08-18T17:40:46.110Z,55.63
2022-08-18T17:43:15.057Z,57.10
2022-08-18T17:45:42.421Z,56.95
2022-08-18T17:48:22.110Z,57.02
2022-08-18T17:51:11.358Z,61.25
2022-08-18T17:53:38.574Z,64.40
2022-08-18T17:56:07.939Z,64.89
2022-08-18T17:58:40.678Z,65.04
2022-08-18T18:01:08.762Z,66.88
2022-08-18T18:03:35.901Z,66.15
2022-08-18T18:06:10.322Z,65.92
2022-08-18T18:08:48.957Z,66.02
2022-08-18T18:11:15.440Z,64.32
2022-08-18T18:13:41.987Z,63.24
2022-08-18T18:16:28.810Z,64.34
2022-08-18T18:19:02.675Z,65.23
2022-08-18T18:21:58.947Z,65.56
2022-08-18T18:24:17.686Z,63.42
2022-08-18T18:26:52.141Z,61.36
2022-08-18T18:29:21.195Z,62.00
2022-08-18T18:31:58.236Z,61.11
2022-08-18T18:34:28.153Z,60.83
2022-08-18T18:36:55.259Z,62.29
2022-08-18T18:39:23.875Z,63.59
2022-08-18T18:42:29.936Z,64.81
2022-08-18T18:45:01.139Z,66.45
2022-08-18T18:47:42.484Z,66.85
2022-08-18T18:50:12.616Z,67.68
2022-08-18T18:52:43.597Z,67.89
2022-08-18T18:55:10.080Z,69.34
2022-08-18T18:57:59.854Z,69.46
2022-08-18T19:00:30.222Z,68.06
2022-08-18T19:03:05.063Z,68.04
2022-08-18T19:05:38.132Z,69.63
2022-08-18T19:08:24.225Z,69.39
2022-08-18T19:10:56.771Z,70.61
2022-08-18T19:13:33.080Z,70.75
2022-08-18T19:16:23.670Z,70.92
2022-08-18T19:19:37.246Z,69.77
2022-08-18T19:22:05.339Z,69.06
2022-08-18T19:24:38.570Z,69.51
2022-08-18T19:27:07.046Z,72.28
2022-08-18T19:29:38.225Z,71.34
2022-08-18T19:32:07.643Z,69.28
2022-08-18T19:34:37.478Z,69.70
2022-08-18T19:37:40.894Z,69.93
2022-08-18T19:40:40.065Z,71.66
2022-08-18T19:43:12.078Z,72.80
2022-08-18T19:45:41.443Z,73.55
2022-08-18T19:48:18.098Z,75.84
2022-08-18T19:50:53.993Z,75.22
2022-08-18T19:53:23.502Z,73.26
2022-08-18T19:56:04.278Z,71.72
2022-08-18T19:59:18.146Z,71.69
2022-08-18T20:01:52.851Z,73.12
2022-08-18T20:04:28.221Z,72.80
2022-08-18T20:06:55.746Z,71.08
2022-08-18T20:09:43.023Z,74.35
2022-08-18T20:12:16.057Z,75.05
2022-08-18T20:14:43.616Z,75.05
2022-08-18T20:17:10.446Z,74.65
2022-08-18T20:19:39.910Z,75.93
2022-08-18T20:22:15.870Z,75.83
2022-08-18T20:24:45.849Z,76.24
2022-08-18T20:27:35.103Z,76.27
2022-08-18T20:30:05.165Z,76.48
2022-08-18T20:32:34.528Z,77.03
2022-08-18T20:35:24.373Z,75.32
2022-08-18T20:37:51.522Z,74.59
2022-08-18T20:40:41.066Z,75.51
2022-08-18T20:43:24.025Z,74.14
2022-08-18T20:45:55.198Z,74.45
2022-08-18T20:48:23.715Z,75.00
2022-08-18T20:51:01.006Z,76.72
2022-08-18T20:53:34.050Z,76.02
2022-08-18T20:56:32.103Z,78.03
2022-08-18T20:59:09.052Z,77.52
2022-08-18T21:01:36.588Z,76.91
2022-08-18T21:04:03.491Z,77.96
2022-08-18T21:06:36.351Z,78.01
2022-08-18T21:09:03.950Z,77.08
2022-08-18T21:11:40.419Z,77.40
2022-08-18T21:14:07.691Z,78.16
2022-08-18T21:16:38.837Z,78.35
2022-08-18T21:19:19.494Z,76.88
2022-08-18T21:21:45.964Z,77.73
2022-08-18T21:24:22.260Z,77.76
2022-08-18T21:26:48.913Z,79.34
2022-08-18T21:29:16.359Z,78.72
2022-08-18T21:31:45.167Z,80.55
2022-08-18T21:34:15.863Z,79.43
2022-08-18T21:36:53.496Z,80.69
2022-08-18T21:39:21.019Z,80.61
2022-08-18T21:41:48.870Z,79.54
2022-08-18T21:44:17.914Z,76.96
2022-08-18T21:46:45.965Z,78.56
2022-08-18T21:49:13.810Z,79.09
2022-08-18T21:51:46.007Z,78.37
2022-08-18T21:54:15.670Z,78.27
2022-08-18T21:56:42.306Z,78.26
2022-08-18T21:59:11.837Z,77.98
2022-08-18T22:01:47.976Z,76.29
2022-08-18T22:04:24.324Z,75.29
2022-08-18T22:06:52.938Z,74.85
2022-08-18T22:09:39.792Z,76.22
2022-08-18T22:12:51.200Z,76.09
2022-08-18T22:15:24.307Z,78.33
2022-08-18T22:17:51.788Z,79.44
2022-08-18T22:20:37.586Z,76.56
2022-08-18T22:23:41.692Z,75.91
2022-08-18T22:26:17.389Z,77.98
2022-08-18T22:29:00.705Z,78.51
2022-08-18T22:31:47.150Z,80.24
2022-08-18T22:34:27.081Z,79.26
2022-08-18T22:36:56.017Z,79.52
2022-08-18T22:39:43.602Z,79.20
2022-08-18T22:42:10.636Z,80.55
2022-08-18T22:44:37.746Z,79.14
2022-08-18T22:47:04.641Z,77.96
2022-08-18T22:49:34.050Z,76.22
2022-08-18T22:52:00.577Z,76.91
2022-08-18T22:54:27.262Z,75.92
2022-08-18T22:56:57.638Z,77.39
2022-08-18T22:59:25.509Z,77.98
2022-08-18T23:01:54.153Z,78.08
2022-08-18T23:04:22.538Z,79.62
2022-08-18T23:06:52.163Z,81.42
2022-08-18T23:09:19.588Z,81.13
2022-08-18T23:11:46.634Z,80.21
2022-08-18T23:14:13.203Z,80.00
2022-08-18T23:16:40.185Z,77.72
2022-08-18T23:19:06.743Z,77.94
2022-08-18T23:21:35.369Z,77.27
2022-08-18T23:24:05.924Z,77.25
2022-08-18T23:26:33.999Z,77.67
2022-08-18T23:29:00.735Z,80.19
2022-08-18T23:31:27.819Z,81.32
2022-08-18T23:33:54.323Z,80.61
2022-08-18T23:36:21.007Z,80.26
2022-08-18T23:38:47.496Z,82.15
2022-08-18T23:41:14.274Z,82.04
2022-08-18T23:43:41.895Z,81.57
2022-08-18T23:46:15.674Z,80.22
2022-08-18T23:48:44.457Z,77.64
2022-08-18T23:51:10.993Z,73.82
2022-08-18T23:53:38.207Z,73.35
2022-08-18T23:56:06.090Z,73.65
2022-08-18T23:58:32.614Z,73.91
